Time;durP1;ratioP1;P1;durP2;ratioP2;P2;SDS_P1;SDS_P2;PMS_P1;PMS_P2;Temp;Humidity;BMP_temperature;BMP_pressure;BME280_temperature;BME280_humidity;BME280_pressure;Samples;Min_cycle;Max_cycle;Signal;HPM_P1;HPM_P2
2022/02/12 00:00:08;;;;;;;13.35;3.63;;;6.60;93.00;;;;;;5106178;28;20052;-67
2022/02/12 00:02:41;;;;;;;18.35;2.90;;;6.60;93.00;;;;;;5094083;28;20118;-68
2022/02/12 00:05:07;;;;;;;10.88;2.80;;;6.60;93.00;;;;;;5093760;28;20028;-67
2022/02/12 00:07:34;;;;;;;12.00;2.50;;;6.50;92.90;;;;;;5092988;28;20541;-67
2022/02/12 00:09:59;;;;;;;15.75;3.08;;;6.50;92.90;;;;;;5080262;28;20036;-67
2022/02/12 00:12:25;;;;;;;10.18;1.67;;;6.50;92.90;;;;;;5093708;28;20458;-68
2022/02/12 00:14:55;;;;;;;6.97;2.70;;;6.50;93.00;;;;;;5092014;28;20043;-67
2022/02/12 00:17:21;;;;;;;12.48;2.63;;;6.50;93.00;;;;;;5080032;28;20028;-68
2022/02/12 00:19:48;;;;;;;10.07;2.53;;;6.40;92.90;;;;;;5093538;28;20483;-67
2022/02/12 00:22:13;;;;;;;13.00;2.47;;;6.40;92.90;;;;;;5091040;28;20028;-67
2022/02/12 00:24:39;;;;;;;9.15;2.33;;;6.40;93.00;;;;;;5081108;28;20395;-67
2022/02/12 00:27:04;;;;;;;10.38;2.80;;;6.40;93.00;;;;;;5093136;28;20020;-68
2022/02/12 00:29:30;;;;;;;8.05;2.10;;;6.40;93.00;;;;;;5091027;28;20028;-67
2022/02/12 00:31:56;;;;;;;9.65;2.72;;;6.30;93.00;;;;;;5093586;28;20032;-67
2022/02/12 00:34:21;;;;;;;13.80;2.92;;;6.30;93.00;;;;;;5093065;28;20049;-67
2022/02/12 00:36:47;;;;;;;7.95;2.25;;;6.30;93.00;;;;;;5092323;28;20028;-67
2022/02/12 00:39:13;;;;;;;7.13;2.45;;;6.30;93.00;;;;;;5090113;28;20028;-67
2022/02/12 00:41:39;;;;;;;12.30;2.72;;;6.30;93.00;;;;;;5082782;28;20111;-68
2022/02/12 00:44:05;;;;;;;11.20;2.65;;;6.20;92.90;;;;;;5092179;28;20486;-68
2022/02/12 00:46:31;;;;;;;9.13;2.75;;;6.30;92.90;;;;;;5093079;28;20055;-67
2022/02/12 00:48:57;;;;;;;11.48;3.25;;;6.20;92.90;;;;;;5093024;28;20097;-67
2022/02/12 00:51:23;;;;;;;10.57;2.90;;;6.20;92.90;;;;;;5092431;28;20028;-67
2022/02/12 00:53:48;;;;;;;5.22;2.70;;;6.20;92.90;;;;;;5092816;28;20016;-68
2022/02/12 00:56:14;;;;;;;7.97;2.50;;;6.20;92.80;;;;;;5092045;28;20032;-66
2022/02/12 00:58:40;;;;;;;15.27;2.92;;;6.30;92.80;;;;;;5097196;28;20453;-67
2022/02/12 01:01:05;;;;;;;15.18;2.83;;;6.30;92.70;;;;;;5107370;28;20475;-67
2022/02/12 01:03:33;;;;;;;8.20;2.72;;;6.20;92.60;;;;;;5089570;28;20130;-68
2022/02/12 01:05:59;;;;;;;7.28;2.63;;;6.20;92.60;;;;;;5092758;28;20039;-67
2022/02/12 01:08:24;;;;;;;13.15;2.80;;;6.20;92.60;;;;;;5091472;28;20031;-67
2022/02/12 01:10:50;;;;;;;6.50;2.63;;;6.20;92.60;;;;;;5091969;28;20445;-67
2022/02/12 01:13:16;;;;;;;17.95;2.97;;;6.20;92.60;;;;;;5092140;28;20356;-67
2022/02/12 01:15:43;;;;;;;10.77;2.67;;;6.20;92.60;;;;;;5089758;28;20051;-67
2022/02/12 01:18:08;;;;;;;7.00;2.53;;;6.20;92.50;;;;;;5091407;28;20089;-67
2022/02/12 01:20:34;;;;;;;16.75;2.97;;;6.10;92.40;;;;;;5092023;28;20078;-67
2022/02/12 01:23:01;;;;;;;9.35;2.42;;;6.10;92.40;;;;;;5085342;28;20072;-67
2022/02/12 01:25:27;;;;;;;16.73;2.53;;;6.10;92.50;;;;;;5084660;28;20085;-68
2022/02/12 01:27:53;;;;;;;9.23;2.72;;;6.10;92.40;;;;;;5079574;28;20024;-67
2022/02/12 01:30:19;;;;;;;12.50;2.40;;;6.00;92.40;;;;;;5092541;28;20028;-67
2022/02/12 01:32:45;;;;;;;9.88;2.33;;;6.00;92.40;;;;;;5091437;28;20028;-67
2022/02/12 01:35:11;;;;;;;13.43;2.03;;;6.00;92.40;;;;;;5082951;28;20028;-67
2022/02/12 01:37:39;;;;;;;5.50;2.28;;;6.00;92.40;;;;;;5088324;28;20031;-67
2022/02/12 01:40:08;;;;;;;6.03;1.63;;;5.90;92.40;;;;;;5091726;28;20044;-67
2022/02/12 01:42:35;;;;;;;6.93;2.22;;;5.90;92.40;;;;;;5092024;28;20562;-68
2022/02/12 01:45:01;;;;;;;9.60;2.70;;;5.90;92.40;;;;;;5095851;28;20359;-67
2022/02/12 01:47:28;;;;;;;7.55;2.03;;;5.90;92.40;;;;;;5095158;28;20035;-67
2022/02/12 01:49:54;;;;;;;9.25;2.35;;;5.90;92.40;;;;;;5095980;28;20429;-67
2022/02/12 01:52:21;;;;;;;9.48;1.75;;;5.80;92.40;;;;;;5094802;28;20024;-68
2022/02/12 01:54:47;;;;;;;4.43;1.63;;;5.80;92.40;;;;;;5096001;28;20043;-66
2022/02/12 01:57:14;;;;;;;6.28;1.85;;;5.80;92.40;;;;;;5096052;28;20024;-67
2022/02/12 01:59:42;;;;;;;12.32;2.38;;;5.80;92.40;;;;;;5108451;28;20735;-67
2022/02/12 02:02:09;;;;;;;11.00;1.73;;;5.70;92.40;;;;;;5083186;28;20099;-67
2022/02/12 02:04:38;;;;;;;15.85;2.35;;;5.70;92.40;;;;;;5095797;28;20032;-67
2022/02/12 02:07:04;;;;;;;13.73;2.53;;;5.70;92.40;;;;;;5087255;28;20487;-67
2022/02/12 02:09:32;;;;;;;1.65;1.15;;;5.70;92.40;;;;;;5089334;28;20059;-67
2022/02/12 02:11:59;;;;;;;8.55;2.47;;;5.70;92.40;;;;;;5084851;28;20526;-67
2022/02/12 02:14:36;;;;;;;15.95;2.30;;;5.60;92.40;;;;;;5095121;28;20032;-67
2022/02/12 02:17:02;;;;;;;4.20;1.70;;;5.60;92.40;;;;;;5084903;28;20111;-67
2022/02/12 02:19:32;;;;;;;8.25;2.28;;;5.60;92.40;;;;;;5093231;28;20036;-67
2022/02/12 02:22:02;;;;;;;5.43;1.65;;;5.60;92.50;;;;;;5083048;28;20055;-67
2022/02/12 02:24:29;;;;;;;6.43;2.13;;;5.60;92.50;;;;;;5094769;28;20044;-67
2022/02/12 02:27:07;;;;;;;1.70;1.05;;;5.60;92.50;;;;;;5094934;28;20441;-67
2022/02/12 02:29:33;;;;;;;10.50;2.97;;;5.60;92.50;;;;;;5090480;28;20433;-67
2022/02/12 02:31:59;;;;;;;28.08;3.13;;;5.50;92.40;;;;;;5095735;28;20124;-67
2022/02/12 02:34:25;;;;;;;10.88;2.35;;;5.60;92.50;;;;;;5095224;28;20059;-67
2022/02/12 02:36:54;;;;;;;10.32;2.90;;;5.50;92.40;;;;;;5095037;28;20024;-67
2022/02/12 02:39:20;;;;;;;6.70;2.20;;;5.50;92.40;;;;;;5094921;28;20028;-67
2022/02/12 02:41:46;;;;;;;8.70;1.90;;;5.50;92.70;;;;;;5094928;28;20067;-66
2022/02/12 02:44:11;;;;;;;5.82;2.45;;;5.50;92.40;;;;;;5095369;28;20051;-66
2022/02/12 02:46:37;;;;;;;14.05;3.30;;;5.50;92.40;;;;;;5095310;28;20455;-67
2022/02/12 02:49:03;;;;;;;7.70;2.15;;;5.50;92.40;;;;;;5088738;28;20486;-67
2022/02/12 02:56:58;;;;;;;3.72;1.52;;;5.40;92.40;;;;;;5097067;28;20035;-67
2022/02/12 02:59:24;;;;;;;7.22;2.10;;;5.30;92.40;;;;;;5099105;28;20697;-67
2022/02/12 03:01:52;;;;;;;12.45;2.55;;;5.30;92.60;;;;;;5099669;28;20584;-67
2022/02/12 03:04:22;;;;;;;8.95;1.38;;;5.30;92.40;;;;;;5107419;28;20098;-67
2022/02/12 03:06:49;;;;;;;5.80;2.28;;;5.30;92.40;;;;;;5098716;28;20036;-67
2022/02/12 03:09:15;;;;;;;7.00;2.60;;;5.30;92.40;;;;;;5094604;28;20024;-66
2022/02/12 03:11:41;;;;;;;5.32;2.20;;;5.30;92.40;;;;;;5093868;28;20031;-67
2022/02/12 03:14:07;;;;;;;5.05;1.48;;;5.30;92.40;;;;;;5101357;28;20027;-67
2022/02/12 03:16:32;;;;;;;16.30;2.80;;;5.30;92.40;;;;;;5094607;28;20024;-67
2022/02/12 03:18:58;;;;;;;7.85;2.42;;;5.30;92.40;;;;;;5093995;28;20134;-67
2022/02/12 03:21:24;;;;;;;4.10;1.55;;;5.30;92.40;;;;;;5094516;28;20044;-67
2022/02/12 03:23:51;;;;;;;8.55;2.22;;;5.30;92.40;;;;;;5093581;28;20032;-67
2022/02/12 03:26:17;;;;;;;5.50;2.33;;;5.20;92.40;;;;;;5085259;28;20541;-67
2022/02/12 03:28:43;;;;;;;5.35;1.58;;;5.20;92.50;;;;;;5094583;28;20028;-66
2022/02/12 03:31:09;;;;;;;7.70;2.13;;;5.20;92.50;;;;;;5103720;28;20165;-67
2022/02/12 03:33:35;;;;;;;10.35;2.03;;;5.20;92.40;;;;;;5081608;28;20029;-66
2022/02/12 03:36:01;;;;;;;3.55;1.60;;;5.10;92.40;;;;;;5087339;28;20032;-66
2022/02/12 03:38:29;;;;;;;5.85;1.65;;;5.10;92.40;;;;;;5086392;28;20024;-67
2022/02/12 03:40:58;;;;;;;3.65;1.38;;;5.10;92.40;;;;;;5080968;28;20050;-67
2022/02/12 03:43:25;;;;;;;2.42;1.38;;;5.10;92.40;;;;;;5080118;28;21449;-67
2022/02/12 03:45:51;;;;;;;2.05;1.50;;;5.10;92.40;;;;;;5100825;28;20038;-67
2022/02/12 03:48:17;;;;;;;2.72;1.23;;;5.10;92.40;;;;;;5090876;28;20036;-66
2022/02/12 03:50:43;;;;;;;3.63;1.40;;;5.00;92.40;;;;;;5089927;28;20032;-66
2022/02/12 03:53:09;;;;;;;8.55;2.33;;;5.00;92.40;;;;;;5085684;28;20032;-67
2022/02/12 03:55:40;;;;;;;3.22;1.40;;;5.00;92.50;;;;;;5083569;28;20032;-66
2022/02/12 03:58:26;;;;;;;2.53;1.15;;;4.90;92.40;;;;;;5083583;28;20028;-65
2022/02/12 04:00:51;;;;;;;2.92;1.33;;;4.90;92.50;;;;;;5085189;28;20105;-66
2022/02/12 04:03:18;;;;;;;1.45;0.77;;;4.90;92.50;;;;;;5097919;28;20028;-66
2022/02/12 04:05:44;;;;;;;13.18;2.40;;;4.90;92.50;;;;;;5094350;28;20059;-67
2022/02/12 04:08:10;;;;;;;2.25;1.10;;;4.90;92.50;;;;;;5093127;28;20042;-67
2022/02/12 04:10:36;;;;;;;1.90;1.52;;;4.90;92.50;;;;;;5082765;28;20059;-67
2022/02/12 04:13:02;;;;;;;5.95;1.83;;;4.80;92.50;;;;;;5089701;28;20803;-67
2022/02/12 04:15:28;;;;;;;6.03;2.28;;;4.80;92.60;;;;;;5092825;28;20104;-67
2022/02/12 04:17:54;;;;;;;8.57;2.53;;;4.90;92.60;;;;;;5079958;28;20524;-66
2022/02/12 04:20:26;;;;;;;1.45;0.95;;;4.80;92.60;;;;;;5101828;28;20076;-67
2022/02/12 04:22:52;;;;;;;8.23;2.50;;;4.80;92.60;;;;;;5088388;28;20060;-67
2022/02/12 04:25:21;;;;;;;9.13;1.80;;;4.80;92.60;;;;;;5085676;28;20038;-66
2022/02/12 04:27:47;;;;;;;18.27;1.67;;;4.80;92.60;;;;;;5092606;28;20491;-66
2022/02/12 04:30:14;;;;;;;3.65;1.75;;;4.80;92.60;;;;;;5093515;28;20039;-67
2022/02/12 04:32:40;;;;;;;6.47;2.33;;;4.80;92.60;;;;;;5086664;28;20043;-67
2022/02/12 04:35:08;;;;;;;3.88;1.60;;;4.80;92.60;;;;;;5085794;28;20170;-67
2022/02/12 04:37:34;;;;;;;12.20;2.40;;;4.80;92.60;;;;;;5086094;28;20043;-67
2022/02/12 04:40:00;;;;;;;9.18;2.47;;;4.90;92.60;;;;;;5085929;28;20108;-66
2022/02/12 04:42:26;;;;;;;3.25;1.40;;;4.80;92.50;;;;;;5082351;28;20055;-66
2022/02/12 04:44:53;;;;;;;11.43;2.05;;;4.90;92.50;;;;;;5092268;28;20483;-67
2022/02/12 04:47:19;;;;;;;12.27;1.92;;;4.80;92.40;;;;;;5092152;28;20038;-66
2022/02/12 04:49:46;;;;;;;15.75;2.10;;;4.90;92.40;;;;;;5091434;28;20129;-66
2022/02/12 04:52:14;;;;;;;5.13;1.65;;;4.80;92.30;;;;;;5092439;28;20024;-67
2022/02/12 04:54:40;;;;;;;4.68;1.58;;;4.80;92.30;;;;;;5091045;28;20032;-67
2022/02/12 04:57:06;;;;;;;4.43;1.40;;;4.80;92.30;;;;;;5091490;28;20028;-67
2022/02/12 04:59:33;;;;;;;3.85;1.35;;;4.80;92.30;;;;;;5091462;28;20063;-67
2022/02/12 05:01:59;;;;;;;8.90;1.98;;;4.80;92.30;;;;;;5091288;28;20522;-67
2022/02/12 05:04:24;;;;;;;5.88;1.52;;;4.70;92.50;;;;;;5092500;28;20032;-67
2022/02/12 05:06:51;;;;;;;12.80;2.08;;;4.70;92.30;;;;;;5092990;28;20032;-67
2022/02/12 05:09:17;;;;;;;6.38;1.83;;;4.70;92.30;;;;;;5091095;28;20024;-67
2022/02/12 05:11:46;;;;;;;7.25;1.17;;;4.70;92.40;;;;;;5089135;28;20035;-67
2022/02/12 05:14:11;;;;;;;8.48;1.48;;;4.70;92.40;;;;;;5091922;28;20039;-67
2022/02/12 05:16:37;;;;;;;7.20;1.90;;;4.60;92.30;;;;;;5091123;28;20024;-67
2022/02/12 05:19:03;;;;;;;8.20;2.10;;;4.60;92.40;;;;;;5091139;28;20034;-67
2022/02/12 05:21:29;;;;;;;11.77;1.90;;;4.60;92.40;;;;;;5088807;28;20037;-68
2022/02/12 05:23:55;;;;;;;5.72;1.90;;;4.60;92.40;;;;;;5091213;28;20042;-68
2022/02/12 05:26:20;;;;;;;5.95;2.17;;;4.60;92.40;;;;;;5091921;28;20039;-68
2022/02/12 05:28:46;;;;;;;8.43;2.10;;;4.60;92.40;;;;;;5091731;28;20032;-67
2022/02/12 05:31:12;;;;;;;3.25;1.33;;;4.60;92.40;;;;;;5090799;28;20032;-67
2022/02/12 05:33:37;;;;;;;3.63;1.73;;;4.50;92.40;;;;;;5088849;28;20109;-67
2022/02/12 05:36:08;;;;;;;2.90;1.25;;;4.60;92.40;;;;;;5091699;28;20086;-68
2022/02/12 05:38:36;;;;;;;5.57;1.75;;;4.50;92.40;;;;;;5091271;28;20036;-68
2022/02/12 05:41:02;;;;;;;8.80;2.00;;;4.50;92.40;;;;;;5092261;28;20684;-68
2022/02/12 05:43:28;;;;;;;4.15;1.55;;;4.50;92.40;;;;;;5092481;28;20024;-68
2022/02/12 05:45:57;;;;;;;9.57;1.83;;;4.50;92.40;;;;;;5086812;28;20082;-68
2022/02/12 05:48:22;;;;;;;4.47;1.23;;;4.50;92.40;;;;;;5072379;28;20021;-68
2022/02/12 05:50:48;;;;;;;11.55;2.50;;;4.50;92.40;;;;;;5072170;28;20032;-68
2022/02/12 05:53:14;;;;;;;4.63;1.85;;;4.50;92.40;;;;;;5089903;28;20038;-68
2022/02/12 05:55:39;;;;;;;18.30;2.13;;;4.50;92.40;;;;;;5092526;28;20032;-68
2022/02/12 05:58:05;;;;;;;7.68;2.25;;;4.40;92.40;;;;;;5091732;28;20035;-67
2022/02/12 06:00:31;;;;;;;3.60;1.73;;;4.40;92.40;;;;;;5089739;28;20487;-68
2022/02/12 06:02:57;;;;;;;3.58;1.17;;;4.40;92.60;;;;;;5092498;28;20114;-68
2022/02/12 06:05:23;;;;;;;3.53;1.85;;;4.40;92.40;;;;;;5095452;28;20048;-68
2022/02/12 06:07:49;;;;;;;5.03;0.98;;;4.40;92.40;;;;;;5072367;28;20033;-68
2022/02/12 06:10:21;;;;;;;13.40;2.40;;;4.40;92.40;;;;;;5091670;28;20020;-68
2022/02/12 06:12:47;;;;;;;8.38;2.35;;;4.40;92.40;;;;;;5090241;28;20422;-68
2022/02/12 06:15:13;;;;;;;5.75;2.50;;;4.40;92.40;;;;;;5079650;28;20043;-68
2022/02/12 06:17:40;;;;;;;7.20;2.65;;;4.30;92.40;;;;;;5091917;28;20463;-68
2022/02/12 06:20:06;;;;;;;9.57;3.28;;;4.30;92.40;;;;;;5091317;28;20491;-68
2022/02/12 06:22:33;;;;;;;8.68;1.88;;;4.40;92.50;;;;;;5091981;28;20027;-68
2022/02/12 06:24:58;;;;;;;9.25;1.98;;;4.40;92.50;;;;;;5092031;28;20498;-68
2022/02/12 06:27:25;;;;;;;11.73;2.63;;;4.30;92.40;;;;;;5090882;28;20099;-68
2022/02/12 06:29:54;;;;;;;1.60;1.20;;;4.30;92.40;;;;;;5093230;28;20054;-68
2022/02/12 06:32:20;;;;;;;3.03;1.42;;;4.30;92.40;;;;;;5092388;28;20028;-68
2022/02/12 06:34:45;;;;;;;2.13;1.70;;;4.30;92.40;;;;;;5074681;28;20545;-68
2022/02/12 06:37:11;;;;;;;4.05;1.75;;;4.40;92.40;;;;;;5092176;28;20028;-68
2022/02/12 06:39:37;;;;;;;12.20;2.30;;;4.30;92.30;;;;;;5095405;28;20098;-67
2022/02/12 06:42:06;;;;;;;7.57;2.05;;;4.30;92.30;;;;;;5094678;28;20088;-68
2022/02/12 06:44:31;;;;;;;1.60;1.50;;;4.30;92.30;;;;;;5095776;28;20027;-69
2022/02/12 06:46:57;;;;;;;6.13;1.55;;;4.20;92.30;;;;;;5095555;28;20406;-69
2022/02/12 06:49:23;;;;;;;7.93;2.38;;;4.30;92.40;;;;;;5094988;28;20638;-68
2022/02/12 06:51:48;;;;;;;6.25;2.60;;;4.20;92.40;;;;;;5095125;28;20406;-67
2022/02/12 06:54:14;;;;;;;3.97;1.58;;;4.20;92.40;;;;;;5101143;28;20475;-67
2022/02/12 06:56:40;;;;;;;4.50;2.45;;;4.30;92.40;;;;;;5094379;28;20034;-67
2022/02/12 06:59:05;;;;;;;8.68;2.55;;;4.30;92.40;;;;;;5092776;28;20185;-67
2022/02/12 07:01:31;;;;;;;2.33;1.73;;;4.30;92.40;;;;;;5093755;28;20129;-68
2022/02/12 07:03:57;;;;;;;6.85;2.00;;;4.30;92.30;;;;;;5093653;28;20173;-67
2022/02/12 07:06:24;;;;;;;3.17;2.15;;;4.30;92.20;;;;;;5091441;28;20091;-67
2022/02/12 07:08:51;;;;;;;5.72;2.35;;;4.20;92.20;;;;;;5084748;28;20028;-67
2022/02/12 07:11:18;;;;;;;1.67;1.42;;;4.20;92.30;;;;;;5088215;28;20472;-67
2022/02/12 07:13:44;;;;;;;0.90;0.90;;;4.20;92.30;;;;;;5088175;28;20036;-69
2022/02/12 07:16:09;;;;;;;2.08;1.38;;;4.20;92.40;;;;;;5089813;28;20024;-68
2022/02/12 07:18:35;;;;;;;7.22;2.67;;;4.10;92.40;;;;;;5087980;28;20093;-68
2022/02/12 07:21:01;;;;;;;5.07;2.47;;;4.10;92.40;;;;;;5091910;28;20067;-68
2022/02/12 07:23:26;;;;;;;6.15;2.47;;;4.10;92.40;;;;;;5092615;28;20021;-68
2022/02/12 07:25:52;;;;;;;4.03;2.25;;;4.10;92.50;;;;;;5095348;28;20383;-68
2022/02/12 07:28:18;;;;;;;3.00;2.15;;;4.00;92.50;;;;;;5094054;28;20539;-67
2022/02/12 07:30:44;;;;;;;5.78;2.67;;;4.00;92.50;;;;;;5092467;28;20055;-68
2022/02/12 07:33:10;;;;;;;3.17;1.80;;;4.00;92.50;;;;;;5093399;28;20020;-68
2022/02/12 07:35:36;;;;;;;6.43;2.10;;;4.00;92.60;;;;;;5088739;28;20124;-68
2022/02/12 07:38:01;;;;;;;6.10;2.80;;;4.00;92.50;;;;;;5086059;28;20058;-68
2022/02/12 07:40:28;;;;;;;7.72;2.88;;;4.00;92.50;;;;;;5092274;28;20096;-68
2022/02/12 07:42:54;;;;;;;17.10;3.67;;;4.10;92.60;;;;;;5093561;28;20051;-68
2022/02/12 07:45:20;;;;;;;1.02;0.98;;;4.00;92.60;;;;;;5080728;28;20472;-69
2022/02/12 07:47:47;;;;;;;8.25;2.67;;;4.00;92.60;;;;;;5092460;28;20028;-68
2022/02/12 07:50:14;;;;;;;8.23;2.60;;;4.10;92.60;;;;;;5091942;28;20067;-67
2022/02/12 07:52:42;;;;;;;5.35;2.03;;;4.10;92.60;;;;;;5089222;28;20047;-68
2022/02/12 07:55:10;;;;;;;5.30;2.95;;;4.10;92.60;;;;;;5084734;28;20040;-68
2022/02/12 07:57:37;;;;;;;9.57;3.13;;;4.20;92.60;;;;;;5091415;28;20356;-68
2022/02/12 08:00:04;;;;;;;2.60;1.60;;;4.20;92.50;;;;;;5087209;28;20048;-68
2022/02/12 08:02:37;;;;;;;17.80;3.75;;;4.20;92.50;;;;;;5087436;28;20086;-66
2022/02/12 08:05:03;;;;;;;3.83;2.15;;;4.30;92.50;;;;;;5092444;28;20042;-66
2022/02/12 08:07:29;;;;;;;5.38;2.30;;;4.20;92.40;;;;;;5090990;28;20119;-65
2022/02/12 08:12:54;;;;;;;7.13;3.28;;;4.20;92.40;;;;;;5088610;28;20035;-67
2022/02/12 08:15:20;;;;;;;3.22;2.03;;;4.30;92.40;;;;;;5086021;28;20391;-65
2022/02/12 08:17:45;;;;;;;6.32;2.58;;;4.20;92.40;;;;;;5090327;28;20237;-65
2022/02/12 08:20:14;;;;;;;10.23;1.58;;;4.20;92.40;;;;;;5086388;28;20411;-65
2022/02/12 08:22:40;;;;;;;4.15;2.45;;;4.20;92.40;;;;;;5087894;28;20039;-65
2022/02/12 08:25:06;;;;;;;11.85;3.30;;;4.20;92.40;;;;;;5085041;28;20024;-68
2022/02/12 08:27:32;;;;;;;14.77;4.05;;;4.20;92.40;;;;;;5090350;28;20490;-66
2022/02/12 08:29:58;;;;;;;10.55;3.90;;;4.30;92.40;;;;;;5091159;28;20038;-66
2022/02/12 08:32:24;;;;;;;4.03;2.45;;;4.30;92.70;;;;;;5090877;28;20032;-68
2022/02/12 08:34:50;;;;;;;8.40;3.33;;;4.30;92.40;;;;;;5087926;28;20115;-69
2022/02/12 08:37:17;;;;;;;4.85;2.40;;;4.20;92.40;;;;;;5088745;28;20055;-68
2022/02/12 08:39:43;;;;;;;4.80;2.50;;;4.20;92.30;;;;;;5086906;28;20028;-67
2022/02/12 08:42:08;;;;;;;2.78;1.70;;;4.20;92.30;;;;;;5086642;28;20047;-67
2022/02/12 08:44:35;;;;;;;6.65;2.22;;;4.20;92.40;;;;;;5087375;28;20060;-67
2022/02/12 08:47:01;;;;;;;6.28;2.88;;;4.20;92.40;;;;;;5084209;28;20044;-67
2022/02/12 08:49:27;;;;;;;2.17;1.55;;;4.20;92.50;;;;;;5089760;28;20043;-66
2022/02/12 08:51:52;;;;;;;5.88;3.17;;;4.10;92.50;;;;;;5091112;28;20028;-69
2022/02/12 08:54:24;;;;;;;1.70;1.23;;;4.10;92.50;;;;;;5086034;28;20546;-69
2022/02/12 08:56:50;;;;;;;6.80;3.05;;;4.10;92.60;;;;;;5095226;28;20149;-67
2022/02/12 08:59:16;;;;;;;14.32;3.25;;;4.20;92.60;;;;;;5095673;28;20495;-68
2022/02/12 09:01:42;;;;;;;7.63;2.17;;;4.20;92.70;;;;;;5088884;28;20040;-68
2022/02/12 09:04:10;;;;;;;8.95;3.05;;;4.10;92.60;;;;;;5089056;28;20117;-68
2022/02/12 09:06:37;;;;;;;6.60;3.55;;;4.10;92.70;;;;;;5087015;28;20032;-68
2022/02/12 09:09:04;;;;;;;10.05;3.17;;;4.10;92.70;;;;;;5086906;28;20049;-65
2022/02/12 09:11:30;;;;;;;10.55;4.00;;;4.10;92.70;;;;;;5086398;28;20127;-66
2022/02/12 09:13:57;;;;;;;10.70;3.10;;;4.10;92.70;;;;;;5087319;28;20379;-65
2022/02/12 09:16:27;;;;;;;4.75;2.15;;;4.20;92.80;;;;;;5087264;28;20035;-66
2022/02/12 09:18:52;;;;;;;4.25;2.38;;;4.20;92.80;;;;;;5089019;28;20467;-66
2022/02/12 09:21:19;;;;;;;11.80;2.97;;;4.20;92.90;;;;;;5089034;28;20151;-66
2022/02/12 09:23:45;;;;;;;9.30;3.38;;;4.20;92.90;;;;;;5090379;28;20024;-66
2022/02/12 09:26:12;;;;;;;13.05;2.40;;;4.20;92.90;;;;;;5088749;28;20040;-66
2022/02/12 09:28:38;;;;;;;12.07;4.03;;;4.20;92.90;;;;;;5089533;28;20026;-66
2022/02/12 09:31:03;;;;;;;6.50;1.27;;;4.20;92.90;;;;;;5089429;28;20849;-66
2022/02/12 09:33:29;;;;;;;5.85;2.45;;;4.20;93.00;;;;;;5089725;28;20498;-66
2022/02/12 09:35:56;;;;;;;5.45;2.22;;;4.20;93.00;;;;;;5090105;28;20035;-66
2022/02/12 09:38:28;;;;;;;5.50;2.67;;;4.20;93.00;;;;;;5088997;28;20035;-66
2022/02/12 09:40:56;;;;;;;9.48;2.40;;;4.30;93.00;;;;;;5089461;28;20123;-66
2022/02/12 09:43:24;;;;;;;4.72;2.28;;;4.30;93.00;;;;;;5090358;28;20024;-66
2022/02/12 09:45:58;;;;;;;3.70;2.65;;;4.30;93.10;;;;;;5089995;28;20035;-66
2022/02/12 09:48:48;;;;;;;14.50;3.13;;;4.40;93.10;;;;;;5090938;28;20024;-66
2022/02/12 09:51:13;;;;;;;8.80;3.15;;;4.40;93.10;;;;;;5088730;28;20495;-66
2022/02/12 09:53:39;;;;;;;2.78;2.00;;;4.40;93.10;;;;;;5091750;28;20030;-66
2022/02/12 09:56:05;;;;;;;10.63;3.72;;;4.40;93.10;;;;;;5091253;28;20028;-66
2022/02/12 09:58:31;;;;;;;15.52;4.53;;;4.40;93.10;;;;;;5089397;28;20036;-66
2022/02/12 10:00:56;;;;;;;8.20;3.42;;;4.40;93.10;;;;;;5090773;28;20510;-69
2022/02/12 10:03:22;;;;;;;9.55;2.65;;;4.50;93.20;;;;;;5091412;28;20089;-66
2022/02/12 10:05:53;;;;;;;3.47;2.38;;;4.40;93.20;;;;;;5092555;28;20032;-66
2022/02/12 10:08:21;;;;;;;12.90;3.05;;;4.40;93.30;;;;;;5094018;28;20032;-66
2022/02/12 10:10:49;;;;;;;9.00;3.03;;;4.40;93.40;;;;;;5094820;28;20039;-66
2022/02/12 10:13:19;;;;;;;10.93;2.97;;;4.50;93.50;;;;;;5093614;28;20391;-65
2022/02/12 10:16:02;;;;;;;2.78;1.80;;;4.40;93.50;;;;;;5094668;28;20032;-65
2022/02/12 10:18:32;;;;;;;11.63;2.35;;;4.50;93.50;;;;;;5093157;28;20040;-65
2022/02/12 10:20:58;;;;;;;11.15;3.05;;;4.50;93.50;;;;;;5092737;28;20047;-65
2022/02/12 10:23:28;;;;;;;19.77;4.97;;;4.60;93.60;;;;;;5094575;28;20109;-66
2022/02/12 10:26:02;;;;;;;12.20;2.58;;;4.60;93.60;;;;;;5093741;28;20036;-66
2022/02/12 10:28:30;;;;;;;7.20;3.70;;;4.70;93.50;;;;;;5089877;28;20037;-66
2022/02/12 10:30:57;;;;;;;4.80;2.85;;;4.70;93.50;;;;;;5094021;28;20475;-66
2022/02/12 10:33:25;;;;;;;2.55;1.42;;;4.70;93.50;;;;;;5093756;28;20016;-67
2022/02/12 10:35:59;;;;;;;3.03;1.88;;;4.80;93.50;;;;;;5091310;28;20439;-66
2022/02/12 10:38:31;;;;;;;6.72;3.90;;;4.80;93.50;;;;;;5092107;28;20028;-68
2022/02/12 10:41:12;;;;;;;7.45;3.50;;;4.80;93.50;;;;;;5093329;28;20032;-67
2022/02/12 10:43:39;;;;;;;5.55;2.58;;;4.90;93.50;;;;;;5093856;28;20032;-68
2022/02/12 10:46:06;;;;;;;12.05;3.35;;;5.00;93.50;;;;;;5094120;28;20032;-70
2022/02/12 10:48:37;;;;;;;1.13;1.02;;;5.00;93.50;;;;;;5090194;28;20134;-67
2022/02/12 10:51:05;;;;;;;8.25;3.35;;;5.10;93.50;;;;;;5094032;28;20028;-66
2022/02/12 10:53:30;;;;;;;10.10;3.03;;;5.10;93.50;;;;;;5094905;28;20038;-67
2022/02/12 10:56:18;;;;;;;3.17;2.05;;;5.10;93.40;;;;;;5093684;28;20051;-66
2022/02/12 10:58:44;;;;;;;9.98;3.88;;;5.20;93.50;;;;;;5094895;28;20474;-66
2022/02/12 11:01:10;;;;;;;5.65;2.53;;;5.20;93.50;;;;;;5094234;28;20181;-66
2022/02/12 11:03:36;;;;;;;6.15;2.42;;;5.20;93.50;;;;;;5079418;28;20035;-66
2022/02/12 11:06:02;;;;;;;5.25;2.58;;;5.30;93.40;;;;;;5091333;28;20043;-66
2022/02/12 11:08:28;;;;;;;14.40;2.60;;;5.30;93.40;;;;;;5079083;28;20418;-66
2022/02/12 11:10:53;;;;;;;13.25;3.10;;;5.30;93.50;;;;;;5094692;28;20047;-65
2022/02/12 11:13:20;;;;;;;5.93;3.15;;;5.40;93.50;;;;;;5075201;28;20024;-66
2022/02/12 11:15:50;;;;;;;5.45;2.75;;;5.50;93.50;;;;;;5079636;28;20364;-66
2022/02/12 11:18:20;;;;;;;1.65;1.40;;;5.60;93.40;;;;;;5093189;28;20028;-65
2022/02/12 11:20:47;;;;;;;4.80;2.67;;;5.60;93.40;;;;;;5080583;28;20043;-65
2022/02/12 11:23:24;;;;;;;14.85;3.00;;;5.50;93.40;;;;;;5081995;28;20081;-64
2022/02/12 11:26:02;;;;;;;11.13;3.03;;;5.50;93.50;;;;;;5090826;28;20039;-66
2022/02/12 11:28:32;;;;;;;10.80;3.63;;;5.60;93.30;;;;;;5087982;28;20154;-65
2022/02/12 11:31:24;;;;;;;8.93;2.95;;;5.60;93.40;;;;;;5089862;28;20164;-64
2022/02/12 11:34:09;;;;;;;10.05;3.50;;;5.60;93.40;;;;;;5078824;28;20044;-65
2022/02/12 11:36:36;;;;;;;8.93;3.83;;;5.60;93.30;;;;;;5088916;28;20036;-65
2022/02/12 11:39:18;;;;;;;9.57;3.10;;;5.60;93.30;;;;;;5085827;28;20047;-65
2022/02/12 11:41:49;;;;;;;11.40;3.60;;;5.60;93.40;;;;;;5091527;28;20040;-65
2022/02/12 11:44:43;;;;;;;14.57;3.47;;;5.60;93.40;;;;;;5090595;28;20028;-65
2022/02/12 11:47:10;;;;;;;10.60;3.33;;;5.70;93.50;;;;;;5090274;28;20028;-65
2022/02/12 11:49:40;;;;;;;13.85;3.22;;;5.70;93.50;;;;;;5092787;28;20036;-66
2022/02/12 11:52:06;;;;;;;7.63;3.40;;;5.70;93.60;;;;;;5092054;28;20024;-66
2022/02/12 11:54:46;;;;;;;9.85;3.63;;;5.80;93.60;;;;;;5094647;28;20367;-66
2022/02/12 11:57:25;;;;;;;10.20;3.33;;;5.80;93.60;;;;;;5089251;28;20028;-66
2022/02/12 11:59:51;;;;;;;6.22;3.33;;;5.90;93.60;;;;;;5091386;28;20078;-66
2022/02/12 12:02:35;;;;;;;13.15;4.15;;;5.90;93.50;;;;;;5092106;28;20405;-66
2022/02/12 12:05:27;;;;;;;12.70;3.58;;;6.00;93.60;;;;;;5090415;28;20028;-65
2022/02/12 12:07:59;;;;;;;8.15;3.15;;;6.00;93.60;;;;;;5089458;28;20040;-66
2022/02/12 12:10:26;;;;;;;6.32;2.00;;;6.00;93.60;;;;;;5093068;28;20028;-68
2022/02/12 12:12:59;;;;;;;12.88;3.80;;;6.10;93.60;;;;;;5080639;28;20037;-67
2022/02/12 12:15:26;;;;;;;9.13;2.90;;;6.10;93.70;;;;;;5092118;28;20028;-66
2022/02/12 12:18:02;;;;;;;12.63;3.58;;;6.20;93.60;;;;;;5089570;28;20305;-66
2022/02/12 12:20:39;;;;;;;9.48;3.15;;;6.20;93.70;;;;;;5089319;28;20067;-66
2022/02/12 12:23:11;;;;;;;15.77;3.63;;;6.30;93.70;;;;;;5086852;28;20379;-66
2022/02/12 12:26:06;;;;;;;7.28;3.03;;;6.40;93.70;;;;;;5089055;28;20362;-66
2022/02/12 12:28:37;;;;;;;;;;;6.50;93.70;;;;;;5089435;28;20032;-66
2022/02/12 12:31:17;;;;;;;8.18;3.65;;;6.50;93.60;;;;;;5088702;28;20379;-66
2022/02/12 12:33:46;;;;;;;6.75;3.50;;;6.60;93.60;;;;;;5089353;28;20531;-66
2022/02/12 12:36:16;;;;;;;11.32;3.25;;;6.60;93.70;;;;;;5090389;28;20039;-67
2022/02/12 12:38:42;;;;;;;8.10;2.70;;;6.70;93.60;;;;;;5091111;28;20031;-65
2022/02/12 12:41:34;;;;;;;8.18;3.20;;;6.70;93.60;;;;;;5080601;28;20088;-66
2022/02/12 12:44:17;;;;;;;13.25;3.70;;;6.80;93.60;;;;;;5087298;28;20135;-65
2022/02/12 12:46:51;;;;;;;9.88;3.78;;;6.90;93.60;;;;;;5085817;28;20123;-67
2022/02/12 12:49:33;;;;;;;5.18;3.00;;;6.90;93.50;;;;;;5088110;28;20032;-70
2022/02/12 12:51:59;;;;;;;2.22;1.65;;;7.00;93.50;;;;;;5088629;28;20081;-66
2022/02/12 12:54:38;;;;;;;7.50;3.08;;;7.00;93.50;;;;;;5089239;28;20027;-65
2022/02/12 12:57:04;;;;;;;11.25;2.92;;;7.10;93.50;;;;;;5085653;28;20036;-66
2022/02/12 12:59:32;;;;;;;11.88;3.67;;;7.10;93.40;;;;;;5086251;28;20052;-69
2022/02/12 13:02:05;;;;;;;8.05;3.03;;;7.10;93.40;;;;;;5089196;28;20097;-66
2022/02/12 13:04:40;;;;;;;19.85;3.35;;;7.20;93.30;;;;;;5087706;28;20023;-67
2022/02/12 13:07:06;;;;;;;7.88;3.28;;;7.20;93.20;;;;;;5088716;28;20122;-67